Aviation Digital Data Service (ADDS)

Output produced by METARs form (0213 UTC 16 July 2019)
found at http://www.aviationweather.gov/metar/data/
 
METAR text: NFTV 160200Z 05004KT 9999 SCT008 BKN040 25/23 Q1011
Conditions at: NFTV (VAVA'U ISLAND , FJ) observed 0200 UTC 16 July 2019
Temperature: 25.0°C (77°F)
Dewpoint: 23.0°C (73°F) [RH = 89%]
Pressure (altimeter): 29.85 inches Hg (1011.0 mb)
Winds: from the NE (50 degrees) at 5 MPH (4 knots; 2.1 m/s)
Visibility: 6 or more miles (10+ km)
Ceiling: 4000 feet AGL
Clouds: scattered clouds at 800 feet AGL
broken clouds at 4000 feet AGL
Weather: no significant weather observed at this time

METAR text: NFTV 160100Z 03007KT 9999 SCT008 BKN040 25/23 Q1012
Conditions at: NFTV (VAVA'U ISLAND , FJ) observed 0100 UTC 16 July 2019
Temperature: 25.0°C (77°F)
Dewpoint: 23.0°C (73°F) [RH = 89%]
Pressure (altimeter): 29.88 inches Hg (1012.0 mb)
Winds: from the NNE (30 degrees) at 8 MPH (7 knots; 3.6 m/s)
Visibility: 6 or more miles (10+ km)
Ceiling: 4000 feet AGL
Clouds: scattered clouds at 800 feet AGL
broken clouds at 4000 feet AGL
Weather: no significant weather observed at this time

METAR text: NFTV 160000Z 04008KT 9999 FEW008 SCT016 BKN040 26/23 Q1012
Conditions at: NFTV (VAVA'U ISLAND , FJ) observed 0000 UTC 16 July 2019
Temperature: 26.0°C (79°F)
Dewpoint: 23.0°C (73°F) [RH = 84%]
Pressure (altimeter): 29.88 inches Hg (1012.0 mb)
Winds: from the NE (40 degrees) at 9 MPH (8 knots; 4.1 m/s)
Visibility: 6 or more miles (10+ km)
Ceiling: 4000 feet AGL
Clouds: few clouds at 800 feet AGL
scattered clouds at 1600 feet AGL
broken clouds at 4000 feet AGL
Weather: no significant weather observed at this time

METAR text: NFTV 152300Z 06009KT 9999 SCT008 BKN016 26/24 Q1013
Conditions at: NFTV (VAVA'U ISLAND , FJ) observed 2300 UTC 15 July 2019
Temperature: 26.0°C (79°F)
Dewpoint: 24.0°C (75°F) [RH = 89%]
Pressure (altimeter): 29.91 inches Hg (1013.0 mb)
Winds: from the ENE (60 degrees) at 10 MPH (9 knots; 4.6 m/s)
Visibility: 6 or more miles (10+ km)
Ceiling: 1600 feet AGL
Clouds: scattered clouds at 800 feet AGL
broken clouds at 1600 feet AGL
Weather: no significant weather observed at this time

METAR text: NFTV 152200Z 05009KT 9999 SCT008 SCT016 BKN110 26/24 Q1014
Conditions at: NFTV (VAVA'U ISLAND , FJ) observed 2200 UTC 15 July 2019
Temperature: 26.0°C (79°F)
Dewpoint: 24.0°C (75°F) [RH = 89%]
Pressure (altimeter): 29.94 inches Hg (1014.0 mb)
Winds: from the NE (50 degrees) at 10 MPH (9 knots; 4.6 m/s)
Visibility: 6 or more miles (10+ km)
Ceiling: 11000 feet AGL
Clouds: scattered clouds at 800 feet AGL
scattered clouds at 1600 feet AGL
broken clouds at 11000 feet AGL
Weather: no significant weather observed at this time

METAR text: NFTV 152100Z 07009KT 9999 FEW008 SCT017 BKN120 26/23 Q1014
Conditions at: NFTV (VAVA'U ISLAND , FJ) observed 2100 UTC 15 July 2019
Temperature: 26.0°C (79°F)
Dewpoint: 23.0°C (73°F) [RH = 84%]
Pressure (altimeter): 29.94 inches Hg (1014.0 mb)
Winds: from the ENE (70 degrees) at 10 MPH (9 knots; 4.6 m/s)
Visibility: 6 or more miles (10+ km)
Ceiling: 12000 feet AGL
Clouds: few clouds at 800 feet AGL
scattered clouds at 1700 feet AGL
broken clouds at 12000 feet AGL
Weather: no significant weather observed at this time

METAR text: NFTV 152000Z 08010KT 9999 SCT017 26/23 Q1013
Conditions at: NFTV (VAVA'U ISLAND , FJ) observed 2000 UTC 15 July 2019
Temperature: 26.0°C (79°F)
Dewpoint: 23.0°C (73°F) [RH = 84%]
Pressure (altimeter): 29.91 inches Hg (1013.0 mb)
Winds: from the E (80 degrees) at 12 MPH (10 knots; 5.1 m/s)
Visibility: 6 or more miles (10+ km)
Ceiling: at least 12,000 feet AGL
Clouds: scattered clouds at 1700 feet AGL
Weather: no significant weather observed at this time

METAR text: NFTV 151900Z 07010KT 9999 FEW017 SCT040 25/23 Q1013
Conditions at: NFTV (VAVA'U ISLAND , FJ) observed 1900 UTC 15 July 2019
Temperature: 25.0°C (77°F)
Dewpoint: 23.0°C (73°F) [RH = 89%]
Pressure (altimeter): 29.91 inches Hg (1013.0 mb)
Winds: from the ENE (70 degrees) at 12 MPH (10 knots; 5.1 m/s)
Visibility: 6 or more miles (10+ km)
Ceiling: at least 12,000 feet AGL
Clouds: few clouds at 1700 feet AGL
scattered clouds at 4000 feet AGL
Weather: no significant weather observed at this time

METAR text: NFTV 151800Z 10009KT 9999 FEW009 SCT017 25/23 Q1012
Conditions at: NFTV (VAVA'U ISLAND , FJ) observed 1800 UTC 15 July 2019
Temperature: 25.0°C (77°F)
Dewpoint: 23.0°C (73°F) [RH = 89%]
Pressure (altimeter): 29.88 inches Hg (1012.0 mb)
Winds: from the E (100 degrees) at 10 MPH (9 knots; 4.6 m/s)
Visibility: 6 or more miles (10+ km)
Ceiling: at least 12,000 feet AGL
Clouds: few clouds at 900 feet AGL
scattered clouds at 1700 feet AGL
Weather: no significant weather observed at this time

METAR text: NFTV 151700Z 09007KT 9999 SCT017 BKN040 24/23 Q1012
Conditions at: NFTV (VAVA'U ISLAND , FJ) observed 1700 UTC 15 July 2019
Temperature: 24.0°C (75°F)
Dewpoint: 23.0°C (73°F) [RH = 94%]
Pressure (altimeter): 29.88 inches Hg (1012.0 mb)
Winds: from the E (90 degrees) at 8 MPH (7 knots; 3.6 m/s)
Visibility: 6 or more miles (10+ km)
Ceiling: 4000 feet AGL
Clouds: scattered clouds at 1700 feet AGL
broken clouds at 4000 feet AGL
Weather: no significant weather observed at this time

METAR text: NFTV 151600Z 09009KT 9999 -SHRA SCT017 BKN040 24/23 Q1011
Conditions at: NFTV (VAVA'U ISLAND , FJ) observed 1600 UTC 15 July 2019
Temperature: 24.0°C (75°F)
Dewpoint: 23.0°C (73°F) [RH = 94%]
Pressure (altimeter): 29.85 inches Hg (1011.0 mb)
Winds: from the E (90 degrees) at 10 MPH (9 knots; 4.6 m/s)
Visibility: 6 or more miles (10+ km)
Ceiling: 4000 feet AGL
Clouds: scattered clouds at 1700 feet AGL
broken clouds at 4000 feet AGL
Weather: -SHRA  (light rain showers)

METAR text: NFTV 151500Z 08009KT 9999 SCT017 BKN040 24/21 Q1011
Conditions at: NFTV (VAVA'U ISLAND , FJ) observed 1500 UTC 15 July 2019
Temperature: 24.0°C (75°F)
Dewpoint: 21.0°C (70°F) [RH = 83%]
Pressure (altimeter): 29.85 inches Hg (1011.0 mb)
Winds: from the E (80 degrees) at 10 MPH (9 knots; 4.6 m/s)
Visibility: 6 or more miles (10+ km)
Ceiling: 4000 feet AGL
Clouds: scattered clouds at 1700 feet AGL
broken clouds at 4000 feet AGL
Weather: no significant weather observed at this time

METAR text: NFTV 151400Z 10008KT 9999 FEW009 BKN017 25/22 Q1012
Conditions at: NFTV (VAVA'U ISLAND , FJ) observed 1400 UTC 15 July 2019
Temperature: 25.0°C (77°F)
Dewpoint: 22.0°C (72°F) [RH = 83%]
Pressure (altimeter): 29.88 inches Hg (1012.0 mb)
Winds: from the E (100 degrees) at 9 MPH (8 knots; 4.1 m/s)
Visibility: 6 or more miles (10+ km)
Ceiling: 1700 feet AGL
Clouds: few clouds at 900 feet AGL
broken clouds at 1700 feet AGL
Weather: no significant weather observed at this time

METAR text: NFTV 151300Z 08009KT 9999 FEW009 BKN017 25/22 Q1012
Conditions at: NFTV (VAVA'U ISLAND , FJ) observed 1300 UTC 15 July 2019
Temperature: 25.0°C (77°F)
Dewpoint: 22.0°C (72°F) [RH = 83%]
Pressure (altimeter): 29.88 inches Hg (1012.0 mb)
Winds: from the E (80 degrees) at 10 MPH (9 knots; 4.6 m/s)
Visibility: 6 or more miles (10+ km)
Ceiling: 1700 feet AGL
Clouds: few clouds at 900 feet AGL
broken clouds at 1700 feet AGL
Weather: no significant weather observed at this time

METAR text: NFTV 151200Z 09009KT 9999 FEW009 BKN017 25/22 Q1013
Conditions at: NFTV (VAVA'U ISLAND , FJ) observed 1200 UTC 15 July 2019
Temperature: 25.0°C (77°F)
Dewpoint: 22.0°C (72°F) [RH = 83%]
Pressure (altimeter): 29.91 inches Hg (1013.0 mb)
Winds: from the E (90 degrees) at 10 MPH (9 knots; 4.6 m/s)
Visibility: 6 or more miles (10+ km)
Ceiling: 1700 feet AGL
Clouds: few clouds at 900 feet AGL
broken clouds at 1700 feet AGL
Weather: no significant weather observed at this time

METAR text: NFTV 151100Z 09010KT 9999 SCT017 24/22 Q1013
Conditions at: NFTV (VAVA'U ISLAND , FJ) observed 1100 UTC 15 July 2019
Temperature: 24.0°C (75°F)
Dewpoint: 22.0°C (72°F) [RH = 89%]
Pressure (altimeter): 29.91 inches Hg (1013.0 mb)
Winds: from the E (90 degrees) at 12 MPH (10 knots; 5.1 m/s)
Visibility: 6 or more miles (10+ km)
Ceiling: at least 12,000 feet AGL
Clouds: scattered clouds at 1700 feet AGL
Weather: no significant weather observed at this time

METAR text: NFTV 151000Z 08010KT 9999 FEW017 BKN040 24/22 Q1013
Conditions at: NFTV (VAVA'U ISLAND , FJ) observed 1000 UTC 15 July 2019
Temperature: 24.0°C (75°F)
Dewpoint: 22.0°C (72°F) [RH = 89%]
Pressure (altimeter): 29.91 inches Hg (1013.0 mb)
Winds: from the E (80 degrees) at 12 MPH (10 knots; 5.1 m/s)
Visibility: 6 or more miles (10+ km)
Ceiling: 4000 feet AGL
Clouds: few clouds at 1700 feet AGL
broken clouds at 4000 feet AGL
Weather: no significant weather observed at this time

METAR text: NFTV 150900Z 08011KT 9999 SCT016 BKN040 24/22 Q1013
Conditions at: NFTV (VAVA'U ISLAND , FJ) observed 0900 UTC 15 July 2019
Temperature: 24.0°C (75°F)
Dewpoint: 22.0°C (72°F) [RH = 89%]
Pressure (altimeter): 29.91 inches Hg (1013.0 mb)
Winds: from the E (80 degrees) at 13 MPH (11 knots; 5.7 m/s)
Visibility: 6 or more miles (10+ km)
Ceiling: 4000 feet AGL
Clouds: scattered clouds at 1600 feet AGL
broken clouds at 4000 feet AGL
Weather: no significant weather observed at this time

METAR text: NFTV 150800Z 08011KT 9999 SCT016 BKN040 24/21 Q1013
Conditions at: NFTV (VAVA'U ISLAND , FJ) observed 0800 UTC 15 July 2019
Temperature: 24.0°C (75°F)
Dewpoint: 21.0°C (70°F) [RH = 83%]
Pressure (altimeter): 29.91 inches Hg (1013.0 mb)
Winds: from the E (80 degrees) at 13 MPH (11 knots; 5.7 m/s)
Visibility: 6 or more miles (10+ km)
Ceiling: 4000 feet AGL
Clouds: scattered clouds at 1600 feet AGL
broken clouds at 4000 feet AGL
Weather: no significant weather observed at this time

METAR text: NFTV 150700Z 11010KT 9999 SCT017 BKN040 25/21 Q1013
Conditions at: NFTV (VAVA'U ISLAND , FJ) observed 0700 UTC 15 July 2019
Temperature: 25.0°C (77°F)
Dewpoint: 21.0°C (70°F) [RH = 79%]
Pressure (altimeter): 29.91 inches Hg (1013.0 mb)
Winds: from the ESE (110 degrees) at 12 MPH (10 knots; 5.1 m/s)
Visibility: 6 or more miles (10+ km)
Ceiling: 4000 feet AGL
Clouds: scattered clouds at 1700 feet AGL
broken clouds at 4000 feet AGL
Weather: no significant weather observed at this time

METAR text: NFTV 150600Z 10010KT 9999 FEW008 SCT017 BKN040 25/21 Q1012
Conditions at: NFTV (VAVA'U ISLAND , FJ) observed 0600 UTC 15 July 2019
Temperature: 25.0°C (77°F)
Dewpoint: 21.0°C (70°F) [RH = 79%]
Pressure (altimeter): 29.88 inches Hg (1012.0 mb)
Winds: from the E (100 degrees) at 12 MPH (10 knots; 5.1 m/s)
Visibility: 6 or more miles (10+ km)
Ceiling: 4000 feet AGL
Clouds: few clouds at 800 feet AGL
scattered clouds at 1700 feet AGL
broken clouds at 4000 feet AGL
Weather: no significant weather observed at this time

METAR text: NFTV 150500Z 10009KT 9999 FEW009 SCT017 BKN040 25/21 Q1012
Conditions at: NFTV (VAVA'U ISLAND , FJ) observed 0500 UTC 15 July 2019
Temperature: 25.0°C (77°F)
Dewpoint: 21.0°C (70°F) [RH = 79%]
Pressure (altimeter): 29.88 inches Hg (1012.0 mb)
Winds: from the E (100 degrees) at 10 MPH (9 knots; 4.6 m/s)
Visibility: 6 or more miles (10+ km)
Ceiling: 4000 feet AGL
Clouds: few clouds at 900 feet AGL
scattered clouds at 1700 feet AGL
broken clouds at 4000 feet AGL
Weather: no significant weather observed at this time

METAR text: NFTV 150400Z 08011KT 9999 FEW009 SCT017 BKN040 25/21 Q1011
Conditions at: NFTV (VAVA'U ISLAND , FJ) observed 0400 UTC 15 July 2019
Temperature: 25.0°C (77°F)
Dewpoint: 21.0°C (70°F) [RH = 79%]
Pressure (altimeter): 29.85 inches Hg (1011.0 mb)
Winds: from the E (80 degrees) at 13 MPH (11 knots; 5.7 m/s)
Visibility: 6 or more miles (10+ km)
Ceiling: 4000 feet AGL
Clouds: few clouds at 900 feet AGL
scattered clouds at 1700 feet AGL
broken clouds at 4000 feet AGL
Weather: no significant weather observed at this time

METAR text: NFTV 150500Z 08011KT 9999 FEW009 SCT017 BKN040 25/21 Q1011
Conditions at: NFTV (VAVA'U ISLAND , FJ) observed 0358 UTC 15 July 2019
Temperature: 25.0°C (77°F)
Dewpoint: 21.0°C (70°F) [RH = 79%]
Pressure (altimeter): 29.85 inches Hg (1011.0 mb)
Winds: from the E (80 degrees) at 13 MPH (11 knots; 5.7 m/s)
Visibility: 6 or more miles (10+ km)
Ceiling: 4000 feet AGL
Clouds: few clouds at 900 feet AGL
scattered clouds at 1700 feet AGL
broken clouds at 4000 feet AGL
Weather: no significant weather observed at this time

METAR text: NFTV 150300Z 09010KT 9999 SCT017 BKN040 25/21 Q1011
Conditions at: NFTV (VAVA'U ISLAND , FJ) observed 0300 UTC 15 July 2019
Temperature: 25.0°C (77°F)
Dewpoint: 21.0°C (70°F) [RH = 79%]
Pressure (altimeter): 29.85 inches Hg (1011.0 mb)
Winds: from the E (90 degrees) at 12 MPH (10 knots; 5.1 m/s)
Visibility: 6 or more miles (10+ km)
Ceiling: 4000 feet AGL
Clouds: scattered clouds at 1700 feet AGL
broken clouds at 4000 feet AGL
Weather: no significant weather observed at this time

METAR text: NFTV 150200Z 08010KT 9999 SCT017 BKN040 25/21 Q1011
Conditions at: NFTV (VAVA'U ISLAND , FJ) observed 0200 UTC 15 July 2019
Temperature: 25.0°C (77°F)
Dewpoint: 21.0°C (70°F) [RH = 79%]
Pressure (altimeter): 29.85 inches Hg (1011.0 mb)
Winds: from the E (80 degrees) at 12 MPH (10 knots; 5.1 m/s)
Visibility: 6 or more miles (10+ km)
Ceiling: 4000 feet AGL
Clouds: scattered clouds at 1700 feet AGL
broken clouds at 4000 feet AGL
Weather: no significant weather observed at this time

METAR text: NFTV 150100Z 09010KT 9999 SCT017 BKN040 25/21 Q1012
Conditions at: NFTV (VAVA'U ISLAND , FJ) observed 0100 UTC 15 July 2019
Temperature: 25.0°C (77°F)
Dewpoint: 21.0°C (70°F) [RH = 79%]
Pressure (altimeter): 29.88 inches Hg (1012.0 mb)
Winds: from the E (90 degrees) at 12 MPH (10 knots; 5.1 m/s)
Visibility: 6 or more miles (10+ km)
Ceiling: 4000 feet AGL
Clouds: scattered clouds at 1700 feet AGL
broken clouds at 4000 feet AGL
Weather: no significant weather observed at this time

METAR text: NFTV 150000Z 08011KT 9999 SCT016 BKN040 25/21 Q1013
Conditions at: NFTV (VAVA'U ISLAND , FJ) observed 0000 UTC 15 July 2019
Temperature: 25.0°C (77°F)
Dewpoint: 21.0°C (70°F) [RH = 79%]
Pressure (altimeter): 29.91 inches Hg (1013.0 mb)
Winds: from the E (80 degrees) at 13 MPH (11 knots; 5.7 m/s)
Visibility: 6 or more miles (10+ km)
Ceiling: 4000 feet AGL
Clouds: scattered clouds at 1600 feet AGL
broken clouds at 4000 feet AGL
Weather: no significant weather observed at this time

METAR text: NFTV 142300Z 10009KT 9999 SCT016 BKN040 25/21 Q1013
Conditions at: NFTV (VAVA'U ISLAND , FJ) observed 2300 UTC 14 July 2019
Temperature: 25.0°C (77°F)
Dewpoint: 21.0°C (70°F) [RH = 79%]
Pressure (altimeter): 29.91 inches Hg (1013.0 mb)
Winds: from the E (100 degrees) at 10 MPH (9 knots; 4.6 m/s)
Visibility: 6 or more miles (10+ km)
Ceiling: 4000 feet AGL
Clouds: scattered clouds at 1600 feet AGL
broken clouds at 4000 feet AGL
Weather: no significant weather observed at this time

METAR text: NFTV 142200Z 10008KT 9999 SCT008 SCT016 BKN040 25/21 Q1014
Conditions at: NFTV (VAVA'U ISLAND , FJ) observed 2200 UTC 14 July 2019
Temperature: 25.0°C (77°F)
Dewpoint: 21.0°C (70°F) [RH = 79%]
Pressure (altimeter): 29.94 inches Hg (1014.0 mb)
Winds: from the E (100 degrees) at 9 MPH (8 knots; 4.1 m/s)
Visibility: 6 or more miles (10+ km)
Ceiling: 4000 feet AGL
Clouds: scattered clouds at 800 feet AGL
scattered clouds at 1600 feet AGL
broken clouds at 4000 feet AGL
Weather: no significant weather observed at this time

METAR text: NFTV 142100Z 09006KT 9999 -RA SCT008 BKN016TCU BKN110 23/21 Q1014
Conditions at: NFTV (VAVA'U ISLAND , FJ) observed 2100 UTC 14 July 2019
Temperature: 23.0°C (73°F)
Dewpoint: 21.0°C (70°F) [RH = 89%]
Pressure (altimeter): 29.94 inches Hg (1014.0 mb)
Winds: from the E (90 degrees) at 7 MPH (6 knots; 3.1 m/s)
Visibility: 6 or more miles (10+ km)
Ceiling: 1600 feet AGL
Clouds: scattered clouds at 800 feet AGL
broken clouds at 1600 feet AGL
broken clouds at 11000 feet AGL
Weather: -RA  (light rain)

METAR text: NFTV 142000Z 08004KT 9999 -SHRA FEW007 SCT016TCU 23/21 Q1014
Conditions at: NFTV (VAVA'U ISLAND , FJ) observed 2000 UTC 14 July 2019
Temperature: 23.0°C (73°F)
Dewpoint: 21.0°C (70°F) [RH = 89%]
Pressure (altimeter): 29.94 inches Hg (1014.0 mb)
Winds: from the E (80 degrees) at 5 MPH (4 knots; 2.1 m/s)
Visibility: 6 or more miles (10+ km)
Ceiling: at least 12,000 feet AGL
Clouds: few clouds at 700 feet AGL
scattered clouds at 1600 feet AGL
Weather: -SHRA  (light rain showers)

METAR text: NFTV 141900Z 10003KT 9999 SCT016TCU 23/21 Q1013
Conditions at: NFTV (VAVA'U ISLAND , FJ) observed 1900 UTC 14 July 2019
Temperature: 23.0°C (73°F)
Dewpoint: 21.0°C (70°F) [RH = 89%]
Pressure (altimeter): 29.91 inches Hg (1013.0 mb)
Winds: from the E (100 degrees) at 3 MPH (3 knots; 1.5 m/s)
Visibility: 6 or more miles (10+ km)
Ceiling: at least 12,000 feet AGL
Clouds: scattered clouds at 1600 feet AGL
Weather: no significant weather observed at this time

METAR text: NFTV 141800Z 12008KT 9999 FEW016 SCT040 BKN110 23/21 Q1012
Conditions at: NFTV (VAVA'U ISLAND , FJ) observed 1800 UTC 14 July 2019
Temperature: 23.0°C (73°F)
Dewpoint: 21.0°C (70°F) [RH = 89%]
Pressure (altimeter): 29.88 inches Hg (1012.0 mb)
Winds: from the ESE (120 degrees) at 9 MPH (8 knots; 4.1 m/s)
Visibility: 6 or more miles (10+ km)
Ceiling: 11000 feet AGL
Clouds: few clouds at 1600 feet AGL
scattered clouds at 4000 feet AGL
broken clouds at 11000 feet AGL
Weather: no significant weather observed at this time

METAR text: NFTV 141700Z 09004KT 9999 FEW007 SCT016TCU BKN110 22/21 Q1012
Conditions at: NFTV (VAVA'U ISLAND , FJ) observed 1700 UTC 14 July 2019
Temperature: 22.0°C (72°F)
Dewpoint: 21.0°C (70°F) [RH = 94%]
Pressure (altimeter): 29.88 inches Hg (1012.0 mb)
Winds: from the E (90 degrees) at 5 MPH (4 knots; 2.1 m/s)
Visibility: 6 or more miles (10+ km)
Ceiling: 11000 feet AGL
Clouds: few clouds at 700 feet AGL
scattered clouds at 1600 feet AGL
broken clouds at 11000 feet AGL
Weather: no significant weather observed at this time

METAR text: NFTV 141600Z 09008KT 9999 FEW007 SCT016TCU BKN110 22/21 Q1011
Conditions at: NFTV (VAVA'U ISLAND , FJ) observed 1600 UTC 14 July 2019
Temperature: 22.0°C (72°F)
Dewpoint: 21.0°C (70°F) [RH = 94%]
Pressure (altimeter): 29.85 inches Hg (1011.0 mb)
Winds: from the E (90 degrees) at 9 MPH (8 knots; 4.1 m/s)
Visibility: 6 or more miles (10+ km)
Ceiling: 11000 feet AGL
Clouds: few clouds at 700 feet AGL
scattered clouds at 1600 feet AGL
broken clouds at 11000 feet AGL
Weather: no significant weather observed at this time

METAR text: NFTV 141500Z 08012KT 9999 -SHRA FEW007 SCT016TCU BKN110 22/21 Q 1012
Conditions at: NFTV (VAVA'U ISLAND , FJ) observed 1500 UTC 14 July 2019
Temperature: 22.0°C (72°F)
Dewpoint: 21.0°C (70°F) [RH = 94%]
Pressure (altimeter): missing
Winds: from the E (80 degrees) at 14 MPH (12 knots; 6.2 m/s)
Visibility: 6 or more miles (10+ km)
Ceiling: 11000 feet AGL
Clouds: few clouds at 700 feet AGL
scattered clouds at 1600 feet AGL
broken clouds at 11000 feet AGL
Weather: -SHRA  (light rain showers)

Forecast for: NFTV (VAVA'U ISLAND , FJ)
Text: TAF NFTV 152329Z 1600/1624 05008KT 9999 FEW008 BKN100
Forecast period: 0000 UTC 16 July 2019 to 0000 UTC 17 July 2019
Forecast type: FROM: standard forecast or significant change
Winds: from the NE (50 degrees) at 9 MPH (8 knots; 4.1 m/s)
Visibility: 6 or more miles 10+ km)
Ceiling: 10000 feet AGL
Clouds: few clouds at 800 feet AGL
broken clouds at 10000 feet AGL
Weather: no significant weather forecast for this period
Text: PROB30
Forecast period: 0000 to 1200 UTC 16 July 2019
Forecast type: TEMPORARY: The following changes expected for less than half the time period
Visibility: 4 miles (7 km)
Ceiling: 1500 feet AGL
Clouds: scattered clouds at 800 feet AGL
broken clouds at 1500 feet AGL
Weather: SHRA  (rain showers)